San Ramon de la Nueva Oran, Argentina
Current Conditions -  °F | °C
As of 1:00 AM on Thursday 27 Nov 2014 (Local Time) from SASJ Reporting Station
Overcast Overcast  
Wind Chill: 19°   Ceiling: 10000
Heat Index: 19°   Visibility: 6mi
Dew Point: 17°   Wind: 6mph
Humidity: 88%   Direction: 270°W
Pressure: 30.09"   Gusts: NA
Location:  23.13°S, 64.33°W
Report Text: SASJ 270400Z 27005KT 9999 SCT040 OVC10019/17 Q1019
Loading
Personal Weather Stations






























Interactive Weather Map New forecast layout! Learn more

10-Day Weather Forecast

Advertisements
Track Severe Weather on mobile